sensor_id;sensor_type;location;lat;lon;timestamp;temperature;humidity
61392;DHT22;47261;52.892;5.738;2023-03-12T00:01:27;1.80;99.90
61392;DHT22;47261;52.892;5.738;2023-03-12T00:03:54;1.90;99.90
61392;DHT22;47261;52.892;5.738;2023-03-12T00:06:20;1.90;99.90
61392;DHT22;47261;52.892;5.738;2023-03-12T00:08:47;1.90;99.90
61392;DHT22;47261;52.892;5.738;2023-03-12T00:11:15;1.90;99.90
61392;DHT22;47261;52.892;5.738;2023-03-12T00:13:42;1.90;99.90
61392;DHT22;47261;52.892;5.738;2023-03-12T00:16:10;1.90;99.90
61392;DHT22;47261;52.892;5.738;2023-03-12T00:18:36;1.90;99.90
61392;DHT22;47261;52.892;5.738;2023-03-12T00:21:02;2.00;99.90
61392;DHT22;47261;52.892;5.738;2023-03-12T00:23:29;1.90;99.90
61392;DHT22;47261;52.892;5.738;2023-03-12T00:26:02;2.00;99.90
61392;DHT22;47261;52.892;5.738;2023-03-12T00:28:28;2.00;99.90
61392;DHT22;47261;52.892;5.738;2023-03-12T00:30:53;2.00;99.90
61392;DHT22;47261;52.892;5.738;2023-03-12T00:33:19;2.00;99.90
61392;DHT22;47261;52.892;5.738;2023-03-12T00:35:45;2.00;99.90
61392;DHT22;47261;52.892;5.738;2023-03-12T00:38:10;2.00;99.90
61392;DHT22;47261;52.892;5.738;2023-03-12T00:40:36;2.10;99.90
61392;DHT22;47261;52.892;5.738;2023-03-12T00:43:03;2.10;99.90
61392;DHT22;47261;52.892;5.738;2023-03-12T00:45:29;2.10;99.90
61392;DHT22;47261;52.892;5.738;2023-03-12T00:47:55;2.20;99.90
61392;DHT22;47261;52.892;5.738;2023-03-12T00:50:20;2.20;99.90
61392;DHT22;47261;52.892;5.738;2023-03-12T00:52:46;2.20;99.90
61392;DHT22;47261;52.892;5.738;2023-03-12T00:55:12;2.20;99.90
61392;DHT22;47261;52.892;5.738;2023-03-12T00:57:37;2.20;99.90
61392;DHT22;47261;52.892;5.738;2023-03-12T01:00:03;2.20;99.90
61392;DHT22;47261;52.892;5.738;2023-03-12T01:02:34;2.20;99.90
61392;DHT22;47261;52.892;5.738;2023-03-12T01:05:00;2.20;99.90
61392;DHT22;47261;52.892;5.738;2023-03-12T01:07:26;2.20;99.90
61392;DHT22;47261;52.892;5.738;2023-03-12T01:09:51;2.20;99.90
61392;DHT22;47261;52.892;5.738;2023-03-12T01:12:17;2.20;99.90
61392;DHT22;47261;52.892;5.738;2023-03-12T01:14:42;2.20;99.90
61392;DHT22;47261;52.892;5.738;2023-03-12T01:17:08;2.20;99.90
61392;DHT22;47261;52.892;5.738;2023-03-12T01:19:34;2.20;99.90
61392;DHT22;47261;52.892;5.738;2023-03-12T01:22:00;2.20;99.90
61392;DHT22;47261;52.892;5.738;2023-03-12T01:24:25;2.20;99.90
61392;DHT22;47261;52.892;5.738;2023-03-12T01:26:51;2.20;99.90
61392;DHT22;47261;52.892;5.738;2023-03-12T01:29:17;2.20;99.90
61392;DHT22;47261;52.892;5.738;2023-03-12T01:31:42;2.20;99.90
61392;DHT22;47261;52.892;5.738;2023-03-12T01:34:10;2.20;99.90
61392;DHT22;47261;52.892;5.738;2023-03-12T01:36:36;2.20;99.90
61392;DHT22;47261;52.892;5.738;2023-03-12T01:39:02;2.20;99.90
61392;DHT22;47261;52.892;5.738;2023-03-12T01:41:30;2.20;99.90
61392;DHT22;47261;52.892;5.738;2023-03-12T01:43:57;2.30;99.90
61392;DHT22;47261;52.892;5.738;2023-03-12T01:48:54;2.30;99.90
61392;DHT22;47261;52.892;5.738;2023-03-12T01:51:21;2.30;99.90
61392;DHT22;47261;52.892;5.738;2023-03-12T01:53:50;2.30;99.90
61392;DHT22;47261;52.892;5.738;2023-03-12T01:56:20;2.40;99.90
61392;DHT22;47261;52.892;5.738;2023-03-12T01:58:50;2.40;99.90
61392;DHT22;47261;52.892;5.738;2023-03-12T02:01:18;2.40;99.90
61392;DHT22;47261;52.892;5.738;2023-03-12T02:03:46;2.40;99.90
61392;DHT22;47261;52.892;5.738;2023-03-12T02:06:15;2.40;99.90
61392;DHT22;47261;52.892;5.738;2023-03-12T02:08:44;2.50;99.90
61392;DHT22;47261;52.892;5.738;2023-03-12T02:11:12;2.50;99.90
61392;DHT22;47261;52.892;5.738;2023-03-12T02:13:38;2.50;99.90
61392;DHT22;47261;52.892;5.738;2023-03-12T02:16:04;2.50;99.90
61392;DHT22;47261;52.892;5.738;2023-03-12T02:18:33;2.50;99.90
61392;DHT22;47261;52.892;5.738;2023-03-12T02:21:21;2.50;99.90
61392;DHT22;47261;52.892;5.738;2023-03-12T02:24:07;2.50;99.90
61392;DHT22;47261;52.892;5.738;2023-03-12T02:26:35;2.50;99.90
61392;DHT22;47261;52.892;5.738;2023-03-12T02:29:02;2.50;99.90
61392;DHT22;47261;52.892;5.738;2023-03-12T02:31:33;2.50;99.90
61392;DHT22;47261;52.892;5.738;2023-03-12T02:34:01;2.50;99.90
61392;DHT22;47261;52.892;5.738;2023-03-12T02:36:27;2.50;99.90
61392;DHT22;47261;52.892;5.738;2023-03-12T02:38:54;2.50;99.90
61392;DHT22;47261;52.892;5.738;2023-03-12T02:41:29;2.50;99.90
61392;DHT22;47261;52.892;5.738;2023-03-12T02:44:06;2.50;99.90
61392;DHT22;47261;52.892;5.738;2023-03-12T02:46:55;2.50;99.90
61392;DHT22;47261;52.892;5.738;2023-03-12T02:49:24;2.50;99.90
61392;DHT22;47261;52.892;5.738;2023-03-12T02:51:51;2.50;99.90
61392;DHT22;47261;52.892;5.738;2023-03-12T02:54:18;2.50;99.90
61392;DHT22;47261;52.892;5.738;2023-03-12T02:56:44;2.50;99.90
61392;DHT22;47261;52.892;5.738;2023-03-12T02:59:11;2.50;99.90
61392;DHT22;47261;52.892;5.738;2023-03-12T03:01:37;2.40;99.90
61392;DHT22;47261;52.892;5.738;2023-03-12T03:04:05;2.50;99.90
61392;DHT22;47261;52.892;5.738;2023-03-12T03:06:31;2.50;99.90
61392;DHT22;47261;52.892;5.738;2023-03-12T03:08:57;2.50;99.90
61392;DHT22;47261;52.892;5.738;2023-03-12T03:11:23;2.50;99.90
61392;DHT22;47261;52.892;5.738;2023-03-12T03:13:53;2.50;99.90
61392;DHT22;47261;52.892;5.738;2023-03-12T03:16:19;2.50;99.80
61392;DHT22;47261;52.892;5.738;2023-03-12T03:18:45;2.50;99.80
61392;DHT22;47261;52.892;5.738;2023-03-12T03:21:11;2.50;99.70
61392;DHT22;47261;52.892;5.738;2023-03-12T03:23:41;2.50;99.90
61392;DHT22;47261;52.892;5.738;2023-03-12T03:26:07;2.50;99.50
61392;DHT22;47261;52.892;5.738;2023-03-12T03:28:33;2.50;99.40
61392;DHT22;47261;52.892;5.738;2023-03-12T03:30:59;2.50;99.40
61392;DHT22;47261;52.892;5.738;2023-03-12T03:33:29;2.50;99.20
61392;DHT22;47261;52.892;5.738;2023-03-12T03:35:56;2.50;99.20
61392;DHT22;47261;52.892;5.738;2023-03-12T03:38:24;2.50;99.10
61392;DHT22;47261;52.892;5.738;2023-03-12T03:40:51;2.50;99.00
61392;DHT22;47261;52.892;5.738;2023-03-12T03:43:17;2.50;98.90
61392;DHT22;47261;52.892;5.738;2023-03-12T03:45:42;2.50;98.90
61392;DHT22;47261;52.892;5.738;2023-03-12T03:48:10;2.60;98.90
61392;DHT22;47261;52.892;5.738;2023-03-12T03:50:37;2.60;98.90
61392;DHT22;47261;52.892;5.738;2023-03-12T03:53:04;2.50;98.80
61392;DHT22;47261;52.892;5.738;2023-03-12T03:55:29;2.60;98.80
61392;DHT22;47261;52.892;5.738;2023-03-12T03:57:55;2.60;99.00
61392;DHT22;47261;52.892;5.738;2023-03-12T04:00:21;2.60;98.80
61392;DHT22;47261;52.892;5.738;2023-03-12T04:02:46;2.60;98.70
61392;DHT22;47261;52.892;5.738;2023-03-12T04:05:12;2.60;98.70
61392;DHT22;47261;52.892;5.738;2023-03-12T04:07:40;2.60;98.70
61392;DHT22;47261;52.892;5.738;2023-03-12T04:10:06;2.60;98.70
61392;DHT22;47261;52.892;5.738;2023-03-12T04:12:32;2.60;98.70
61392;DHT22;47261;52.892;5.738;2023-03-12T04:14:57;2.60;98.70
61392;DHT22;47261;52.892;5.738;2023-03-12T04:17:23;2.60;98.80
61392;DHT22;47261;52.892;5.738;2023-03-12T04:19:49;2.60;98.80
61392;DHT22;47261;52.892;5.738;2023-03-12T04:22:14;2.60;98.80
61392;DHT22;47261;52.892;5.738;2023-03-12T04:24:40;2.60;99.00
61392;DHT22;47261;52.892;5.738;2023-03-12T04:27:05;2.60;98.70
61392;DHT22;47261;52.892;5.738;2023-03-12T04:29:31;2.60;98.70
61392;DHT22;47261;52.892;5.738;2023-03-12T04:31:57;2.70;98.70
61392;DHT22;47261;52.892;5.738;2023-03-12T04:34:22;2.70;98.70
61392;DHT22;47261;52.892;5.738;2023-03-12T04:36:48;2.70;99.00
61392;DHT22;47261;52.892;5.738;2023-03-12T04:39:18;2.70;98.70
61392;DHT22;47261;52.892;5.738;2023-03-12T04:41:44;2.70;98.70
61392;DHT22;47261;52.892;5.738;2023-03-12T04:44:09;2.70;98.70
61392;DHT22;47261;52.892;5.738;2023-03-12T04:46:35;2.70;98.70
61392;DHT22;47261;52.892;5.738;2023-03-12T04:49:02;2.70;98.70
61392;DHT22;47261;52.892;5.738;2023-03-12T04:51:28;2.80;98.70
61392;DHT22;47261;52.892;5.738;2023-03-12T04:53:54;2.80;98.60
61392;DHT22;47261;52.892;5.738;2023-03-12T04:56:20;2.80;98.60
61392;DHT22;47261;52.892;5.738;2023-03-12T04:58:46;2.80;98.60
61392;DHT22;47261;52.892;5.738;2023-03-12T05:01:32;2.80;98.50
61392;DHT22;47261;52.892;5.738;2023-03-12T05:03:58;2.80;98.50
61392;DHT22;47261;52.892;5.738;2023-03-12T05:06:25;2.80;98.50
61392;DHT22;47261;52.892;5.738;2023-03-12T05:08:50;2.80;98.50
61392;DHT22;47261;52.892;5.738;2023-03-12T05:11:17;2.80;98.40
61392;DHT22;47261;52.892;5.738;2023-03-12T05:13:43;2.80;98.40
61392;DHT22;47261;52.892;5.738;2023-03-12T05:16:09;2.80;98.40
61392;DHT22;47261;52.892;5.738;2023-03-12T05:18:35;2.80;98.30
61392;DHT22;47261;52.892;5.738;2023-03-12T05:21:05;2.80;98.40
61392;DHT22;47261;52.892;5.738;2023-03-12T05:23:31;2.80;98.30
61392;DHT22;47261;52.892;5.738;2023-03-12T05:25:57;2.80;98.30
61392;DHT22;47261;52.892;5.738;2023-03-12T05:28:23;2.80;98.30
61392;DHT22;47261;52.892;5.738;2023-03-12T05:30:57;2.80;98.30
61392;DHT22;47261;52.892;5.738;2023-03-12T05:33:24;2.80;98.30
61392;DHT22;47261;52.892;5.738;2023-03-12T05:35:50;2.80;98.30
61392;DHT22;47261;52.892;5.738;2023-03-12T05:38:16;2.80;98.30
61392;DHT22;47261;52.892;5.738;2023-03-12T05:40:41;2.80;98.30
61392;DHT22;47261;52.892;5.738;2023-03-12T05:43:07;2.80;98.30
61392;DHT22;47261;52.892;5.738;2023-03-12T05:45:33;2.80;98.30
61392;DHT22;47261;52.892;5.738;2023-03-12T05:47:58;2.80;98.40
61392;DHT22;47261;52.892;5.738;2023-03-12T05:50:25;2.80;98.40
61392;DHT22;47261;52.892;5.738;2023-03-12T05:52:50;2.80;98.30
61392;DHT22;47261;52.892;5.738;2023-03-12T05:55:16;2.80;98.30
61392;DHT22;47261;52.892;5.738;2023-03-12T05:57:42;2.80;98.30
61392;DHT22;47261;52.892;5.738;2023-03-12T06:00:09;2.80;98.30
61392;DHT22;47261;52.892;5.738;2023-03-12T06:02:34;2.80;98.30
61392;DHT22;47261;52.892;5.738;2023-03-12T06:05:00;2.80;98.30
61392;DHT22;47261;52.892;5.738;2023-03-12T06:07:26;2.80;98.30
61392;DHT22;47261;52.892;5.738;2023-03-12T06:09:51;2.80;98.30
61392;DHT22;47261;52.892;5.738;2023-03-12T06:12:17;2.80;98.40
61392;DHT22;47261;52.892;5.738;2023-03-12T06:14:42;2.90;98.40
61392;DHT22;47261;52.892;5.738;2023-03-12T06:17:08;2.90;98.40
61392;DHT22;47261;52.892;5.738;2023-03-12T06:19:34;2.90;98.40
61392;DHT22;47261;52.892;5.738;2023-03-12T06:21:59;2.90;98.40
61392;DHT22;47261;52.892;5.738;2023-03-12T06:24:25;2.90;98.30
61392;DHT22;47261;52.892;5.738;2023-03-12T06:26:50;2.90;98.40
61392;DHT22;47261;52.892;5.738;2023-03-12T06:29:16;2.90;98.40
61392;DHT22;47261;52.892;5.738;2023-03-12T06:31:42;3.00;98.40
61392;DHT22;47261;52.892;5.738;2023-03-12T06:34:08;3.00;98.30
61392;DHT22;47261;52.892;5.738;2023-03-12T06:36:35;3.00;98.30
61392;DHT22;47261;52.892;5.738;2023-03-12T06:39:00;3.00;98.30
61392;DHT22;47261;52.892;5.738;2023-03-12T06:41:26;3.00;98.20
61392;DHT22;47261;52.892;5.738;2023-03-12T06:43:52;3.00;98.30
61392;DHT22;47261;52.892;5.738;2023-03-12T06:46:19;3.00;98.30
61392;DHT22;47261;52.892;5.738;2023-03-12T06:48:46;3.00;98.30
61392;DHT22;47261;52.892;5.738;2023-03-12T06:51:14;3.00;98.40
61392;DHT22;47261;52.892;5.738;2023-03-12T06:53:40;3.00;98.40
61392;DHT22;47261;52.892;5.738;2023-03-12T06:56:06;3.00;98.40
61392;DHT22;47261;52.892;5.738;2023-03-12T06:58:32;3.00;98.40
61392;DHT22;47261;52.892;5.738;2023-03-12T07:00:58;2.90;98.50
61392;DHT22;47261;52.892;5.738;2023-03-12T07:03:24;2.90;98.50
61392;DHT22;47261;52.892;5.738;2023-03-12T07:05:50;2.90;98.60
61392;DHT22;47261;52.892;5.738;2023-03-12T07:08:16;2.90;98.70
61392;DHT22;47261;52.892;5.738;2023-03-12T07:10:43;2.80;98.70
61392;DHT22;47261;52.892;5.738;2023-03-12T07:13:09;2.80;98.90
61392;DHT22;47261;52.892;5.738;2023-03-12T07:15:34;2.80;99.00
61392;DHT22;47261;52.892;5.738;2023-03-12T07:18:03;2.80;99.10
61392;DHT22;47261;52.892;5.738;2023-03-12T07:20:29;2.80;99.20
61392;DHT22;47261;52.892;5.738;2023-03-12T07:22:54;2.70;99.30
61392;DHT22;47261;52.892;5.738;2023-03-12T07:25:20;2.70;99.40
61392;DHT22;47261;52.892;5.738;2023-03-12T07:27:46;2.70;99.50
61392;DHT22;47261;52.892;5.738;2023-03-12T07:30:11;2.70;99.60
61392;DHT22;47261;52.892;5.738;2023-03-12T07:32:37;2.70;99.70
61392;DHT22;47261;52.892;5.738;2023-03-12T07:35:03;2.70;99.90
61392;DHT22;47261;52.892;5.738;2023-03-12T07:37:29;2.70;99.90
61392;DHT22;47261;52.892;5.738;2023-03-12T07:39:55;2.70;99.90
61392;DHT22;47261;52.892;5.738;2023-03-12T07:42:21;2.80;99.90
61392;DHT22;47261;52.892;5.738;2023-03-12T07:44:46;2.80;99.90
61392;DHT22;47261;52.892;5.738;2023-03-12T07:47:12;2.80;99.90
61392;DHT22;47261;52.892;5.738;2023-03-12T07:49:38;2.80;99.90
61392;DHT22;47261;52.892;5.738;2023-03-12T07:52:07;2.90;99.90
61392;DHT22;47261;52.892;5.738;2023-03-12T07:54:35;2.90;99.90
61392;DHT22;47261;52.892;5.738;2023-03-12T07:57:00;2.90;99.90
61392;DHT22;47261;52.892;5.738;2023-03-12T07:59:26;2.90;99.90
61392;DHT22;47261;52.892;5.738;2023-03-12T08:01:52;2.90;99.90
61392;DHT22;47261;52.892;5.738;2023-03-12T08:04:18;3.00;99.90
61392;DHT22;47261;52.892;5.738;2023-03-12T08:06:44;2.90;99.90
61392;DHT22;47261;52.892;5.738;2023-03-12T08:09:10;2.90;99.90
61392;DHT22;47261;52.892;5.738;2023-03-12T08:11:36;3.00;99.90
61392;DHT22;47261;52.892;5.738;2023-03-12T08:14:03;3.00;99.90
61392;DHT22;47261;52.892;5.738;2023-03-12T08:16:28;3.00;99.90
61392;DHT22;47261;52.892;5.738;2023-03-12T08:18:54;3.00;99.90
61392;DHT22;47261;52.892;5.738;2023-03-12T08:21:20;3.00;99.90
61392;DHT22;47261;52.892;5.738;2023-03-12T08:23:45;3.00;99.90
61392;DHT22;47261;52.892;5.738;2023-03-12T08:26:11;3.00;99.90
61392;DHT22;47261;52.892;5.738;2023-03-12T08:28:37;3.00;99.90
61392;DHT22;47261;52.892;5.738;2023-03-12T08:31:02;3.00;99.90
61392;DHT22;47261;52.892;5.738;2023-03-12T08:33:28;3.00;99.90
61392;DHT22;47261;52.892;5.738;2023-03-12T08:35:54;3.00;99.90
61392;DHT22;47261;52.892;5.738;2023-03-12T08:38:20;3.00;99.90
61392;DHT22;47261;52.892;5.738;2023-03-12T08:40:45;3.00;99.90
61392;DHT22;47261;52.892;5.738;2023-03-12T08:43:11;3.10;99.90
61392;DHT22;47261;52.892;5.738;2023-03-12T08:45:37;3.10;99.90
61392;DHT22;47261;52.892;5.738;2023-03-12T08:48:04;3.10;99.90
61392;DHT22;47261;52.892;5.738;2023-03-12T08:50:30;3.10;99.90
61392;DHT22;47261;52.892;5.738;2023-03-12T08:52:57;3.10;99.90
61392;DHT22;47261;52.892;5.738;2023-03-12T08:55:24;3.20;99.90
61392;DHT22;47261;52.892;5.738;2023-03-12T08:57:50;3.20;99.90
61392;DHT22;47261;52.892;5.738;2023-03-12T09:00:16;3.20;99.90
61392;DHT22;47261;52.892;5.738;2023-03-12T09:02:45;3.20;99.90
61392;DHT22;47261;52.892;5.738;2023-03-12T09:05:11;3.30;99.90
61392;DHT22;47261;52.892;5.738;2023-03-12T09:07:37;3.30;99.90
61392;DHT22;47261;52.892;5.738;2023-03-12T09:10:04;3.30;99.90
61392;DHT22;47261;52.892;5.738;2023-03-12T09:12:30;3.30;99.90
61392;DHT22;47261;52.892;5.738;2023-03-12T09:14:55;3.40;99.90
61392;DHT22;47261;52.892;5.738;2023-03-12T09:17:21;3.40;99.90
61392;DHT22;47261;52.892;5.738;2023-03-12T09:19:46;3.50;99.90
61392;DHT22;47261;52.892;5.738;2023-03-12T09:22:12;3.50;99.90
61392;DHT22;47261;52.892;5.738;2023-03-12T09:24:38;3.60;99.90
61392;DHT22;47261;52.892;5.738;2023-03-12T09:27:03;3.60;99.90
61392;DHT22;47261;52.892;5.738;2023-03-12T09:29:30;3.60;99.90
61392;DHT22;47261;52.892;5.738;2023-03-12T09:31:56;3.70;99.90
61392;DHT22;47261;52.892;5.738;2023-03-12T09:34:21;3.70;99.90
61392;DHT22;47261;52.892;5.738;2023-03-12T09:36:47;3.70;99.90
61392;DHT22;47261;52.892;5.738;2023-03-12T09:39:12;3.80;99.90
61392;DHT22;47261;52.892;5.738;2023-03-12T09:41:39;3.80;99.90
61392;DHT22;47261;52.892;5.738;2023-03-12T09:46:55;3.90;99.90
61392;DHT22;47261;52.892;5.738;2023-03-12T09:49:38;3.90;99.90
61392;DHT22;47261;52.892;5.738;2023-03-12T09:52:26;4.00;99.90
61392;DHT22;47261;52.892;5.738;2023-03-12T09:55:02;4.00;99.90
61392;DHT22;47261;52.892;5.738;2023-03-12T09:57:28;4.10;99.90
61392;DHT22;47261;52.892;5.738;2023-03-12T09:59:55;4.10;99.90
61392;DHT22;47261;52.892;5.738;2023-03-12T10:02:27;4.10;99.90
61392;DHT22;47261;52.892;5.738;2023-03-12T10:05:10;4.20;99.90
61392;DHT22;47261;52.892;5.738;2023-03-12T10:07:55;4.20;99.90
61392;DHT22;47261;52.892;5.738;2023-03-12T10:13:16;4.40;99.90
61392;DHT22;47261;52.892;5.738;2023-03-12T10:21:45;4.70;99.90
61392;DHT22;47261;52.892;5.738;2023-03-12T10:26:54;4.90;99.90
61392;DHT22;47261;52.892;5.738;2023-03-12T10:29:33;5.00;99.90
61392;DHT22;47261;52.892;5.738;2023-03-12T10:34:57;5.10;99.90
61392;DHT22;47261;52.892;5.738;2023-03-12T10:37:40;5.20;99.90
61392;DHT22;47261;52.892;5.738;2023-03-12T10:40:14;5.30;99.90
61392;DHT22;47261;52.892;5.738;2023-03-12T10:42:40;5.50;99.90
61392;DHT22;47261;52.892;5.738;2023-03-12T10:47:37;5.80;99.90
61392;DHT22;47261;52.892;5.738;2023-03-12T10:50:23;6.00;99.90
61392;DHT22;47261;52.892;5.738;2023-03-12T10:52:51;6.20;99.90
61392;DHT22;47261;52.892;5.738;2023-03-12T10:55:26;6.30;99.90
61392;DHT22;47261;52.892;5.738;2023-03-12T10:57:54;6.40;99.90
61392;DHT22;47261;52.892;5.738;2023-03-12T11:00:23;6.50;99.90
61392;DHT22;47261;52.892;5.738;2023-03-12T11:03:16;6.60;99.90
61392;DHT22;47261;52.892;5.738;2023-03-12T11:05:48;6.70;99.90
61392;DHT22;47261;52.892;5.738;2023-03-12T11:08:21;6.80;99.90
61392;DHT22;47261;52.892;5.738;2023-03-12T11:10:48;6.90;99.90
61392;DHT22;47261;52.892;5.738;2023-03-12T11:13:31;6.90;99.90
61392;DHT22;47261;52.892;5.738;2023-03-12T11:16:23;6.90;99.90
61392;DHT22;47261;52.892;5.738;2023-03-12T11:18:57;7.00;99.90
61392;DHT22;47261;52.892;5.738;2023-03-12T11:21:29;7.00;99.90
61392;DHT22;47261;52.892;5.738;2023-03-12T11:28:50;7.20;99.90
61392;DHT22;47261;52.892;5.738;2023-03-12T11:31:26;7.40;99.90
61392;DHT22;47261;52.892;5.738;2023-03-12T11:33:58;7.50;99.90
61392;DHT22;47261;52.892;5.738;2023-03-12T11:44:39;7.80;99.90
61392;DHT22;47261;52.892;5.738;2023-03-12T11:47:16;7.90;99.90
61392;DHT22;47261;52.892;5.738;2023-03-12T11:55:16;7.90;99.90
61392;DHT22;47261;52.892;5.738;2023-03-12T12:06:04;8.20;99.90
61392;DHT22;47261;52.892;5.738;2023-03-12T12:11:18;8.40;99.90
61392;DHT22;47261;52.892;5.738;2023-03-12T12:13:56;8.50;99.90
61392;DHT22;47261;52.892;5.738;2023-03-12T12:16:40;8.40;99.90
61392;DHT22;47261;52.892;5.738;2023-03-12T12:27:21;8.30;99.90
61392;DHT22;47261;52.892;5.738;2023-03-12T12:30:09;8.40;99.90
61392;DHT22;47261;52.892;5.738;2023-03-12T12:35:32;8.70;99.90
61392;DHT22;47261;52.892;5.738;2023-03-12T12:38:09;8.80;99.90
61392;DHT22;47261;52.892;5.738;2023-03-12T12:40:40;8.90;99.90
61392;DHT22;47261;52.892;5.738;2023-03-12T12:43:25;9.00;99.90
61392;DHT22;47261;52.892;5.738;2023-03-12T12:46:16;9.10;99.90
61392;DHT22;47261;52.892;5.738;2023-03-12T12:48:43;9.20;99.90
61392;DHT22;47261;52.892;5.738;2023-03-12T12:51:12;9.20;99.90
61392;DHT22;47261;52.892;5.738;2023-03-12T12:54:00;9.20;99.90
61392;DHT22;47261;52.892;5.738;2023-03-12T12:56:57;9.30;99.90
61392;DHT22;47261;52.892;5.738;2023-03-12T12:59:26;9.30;99.90
61392;DHT22;47261;52.892;5.738;2023-03-12T13:01:56;9.40;99.90
61392;DHT22;47261;52.892;5.738;2023-03-12T13:04:46;9.50;99.90
61392;DHT22;47261;52.892;5.738;2023-03-12T13:09:53;9.70;99.90
61392;DHT22;47261;52.892;5.738;2023-03-12T13:14:51;9.70;99.90
61392;DHT22;47261;52.892;5.738;2023-03-12T13:20:15;9.60;99.90
61392;DHT22;47261;52.892;5.738;2023-03-12T13:23:02;9.70;99.90
61392;DHT22;47261;52.892;5.738;2023-03-12T13:36:50;10.10;99.90
61392;DHT22;47261;52.892;5.738;2023-03-12T13:39:17;9.90;99.90
61392;DHT22;47261;52.892;5.738;2023-03-12T13:41:49;9.80;99.90
61392;DHT22;47261;52.892;5.738;2023-03-12T13:46:57;9.50;99.90
61392;DHT22;47261;52.892;5.738;2023-03-12T13:49:24;9.40;99.90
61392;DHT22;47261;52.892;5.738;2023-03-12T13:51:58;9.30;99.90
61392;DHT22;47261;52.892;5.738;2023-03-12T13:54:27;9.40;99.90
61392;DHT22;47261;52.892;5.738;2023-03-12T13:57:00;9.40;99.90
61392;DHT22;47261;52.892;5.738;2023-03-12T13:59:26;9.40;99.90
61392;DHT22;47261;52.892;5.738;2023-03-12T14:02:03;9.50;99.90
61392;DHT22;47261;52.892;5.738;2023-03-12T14:04:34;9.50;99.90
61392;DHT22;47261;52.892;5.738;2023-03-12T14:18:03;9.40;99.90
61392;DHT22;47261;52.892;5.738;2023-03-12T14:20:37;9.40;99.90
61392;DHT22;47261;52.892;5.738;2023-03-12T14:23:08;9.40;99.90
61392;DHT22;47261;52.892;5.738;2023-03-12T14:25:45;9.40;99.90
61392;DHT22;47261;52.892;5.738;2023-03-12T14:28:17;9.40;99.90
61392;DHT22;47261;52.892;5.738;2023-03-12T14:30:56;9.40;99.90
61392;DHT22;47261;52.892;5.738;2023-03-12T14:33:23;9.40;99.90
61392;DHT22;47261;52.892;5.738;2023-03-12T14:36:05;9.40;99.90
61392;DHT22;47261;52.892;5.738;2023-03-12T14:38:41;9.50;99.90
61392;DHT22;47261;52.892;5.738;2023-03-12T14:41:32;9.50;99.90
61392;DHT22;47261;52.892;5.738;2023-03-12T14:44:06;9.50;99.90
61392;DHT22;47261;52.892;5.738;2023-03-12T14:46:35;9.50;99.90
61392;DHT22;47261;52.892;5.738;2023-03-12T14:49:01;9.50;99.90
61392;DHT22;47261;52.892;5.738;2023-03-12T14:51:29;9.50;99.90
61392;DHT22;47261;52.892;5.738;2023-03-12T14:53:55;9.50;99.90
61392;DHT22;47261;52.892;5.738;2023-03-12T14:56:33;9.60;99.90
61392;DHT22;47261;52.892;5.738;2023-03-12T14:59:03;9.60;99.90
61392;DHT22;47261;52.892;5.738;2023-03-12T15:01:44;9.70;99.90
61392;DHT22;47261;52.892;5.738;2023-03-12T15:04:15;9.70;99.90
61392;DHT22;47261;52.892;5.738;2023-03-12T15:06:45;9.70;99.90
61392;DHT22;47261;52.892;5.738;2023-03-12T15:09:19;9.70;99.90
61392;DHT22;47261;52.892;5.738;2023-03-12T15:11:53;9.60;99.90
61392;DHT22;47261;52.892;5.738;2023-03-12T15:14:20;9.60;99.90
61392;DHT22;47261;52.892;5.738;2023-03-12T15:16:47;9.50;99.90
61392;DHT22;47261;52.892;5.738;2023-03-12T15:19:17;9.50;99.90
61392;DHT22;47261;52.892;5.738;2023-03-12T15:21:45;9.50;99.90
61392;DHT22;47261;52.892;5.738;2023-03-12T15:24:12;9.40;99.90
61392;DHT22;47261;52.892;5.738;2023-03-12T15:26:39;9.40;99.90
61392;DHT22;47261;52.892;5.738;2023-03-12T15:31:51;9.40;99.90
61392;DHT22;47261;52.892;5.738;2023-03-12T15:34:37;9.40;99.90
61392;DHT22;47261;52.892;5.738;2023-03-12T15:37:22;9.40;99.90
61392;DHT22;47261;52.892;5.738;2023-03-12T15:39:53;9.50;99.90
61392;DHT22;47261;52.892;5.738;2023-03-12T15:42:22;9.60;99.90
61392;DHT22;47261;52.892;5.738;2023-03-12T15:44:54;9.60;99.90
61392;DHT22;47261;52.892;5.738;2023-03-12T15:47:24;9.70;99.90
61392;DHT22;47261;52.892;5.738;2023-03-12T15:49:53;9.80;99.90
61392;DHT22;47261;52.892;5.738;2023-03-12T15:57:32;9.90;99.90
61392;DHT22;47261;52.892;5.738;2023-03-12T16:08:18;10.00;99.90
61392;DHT22;47261;52.892;5.738;2023-03-12T16:10:46;10.00;99.90
61392;DHT22;47261;52.892;5.738;2023-03-12T16:13:14;10.00;99.90
61392;DHT22;47261;52.892;5.738;2023-03-12T16:15:40;10.00;99.90
61392;DHT22;47261;52.892;5.738;2023-03-12T16:18:15;9.90;99.90
61392;DHT22;47261;52.892;5.738;2023-03-12T16:20:41;9.90;99.90
61392;DHT22;47261;52.892;5.738;2023-03-12T16:23:07;9.90;99.90
61392;DHT22;47261;52.892;5.738;2023-03-12T16:25:33;9.70;99.90
61392;DHT22;47261;52.892;5.738;2023-03-12T16:28:04;9.60;99.90
61392;DHT22;47261;52.892;5.738;2023-03-12T16:30:33;9.50;99.90
61392;DHT22;47261;52.892;5.738;2023-03-12T16:33:00;9.40;99.90
61392;DHT22;47261;52.892;5.738;2023-03-12T16:35:26;9.30;99.90
61392;DHT22;47261;52.892;5.738;2023-03-12T16:37:53;9.20;99.90
61392;DHT22;47261;52.892;5.738;2023-03-12T16:40:20;9.10;99.90
61392;DHT22;47261;52.892;5.738;2023-03-12T16:42:49;9.00;99.90
61392;DHT22;47261;52.892;5.738;2023-03-12T16:45:17;9.00;99.90
61392;DHT22;47261;52.892;5.738;2023-03-12T16:47:43;8.80;99.90
61392;DHT22;47261;52.892;5.738;2023-03-12T16:50:16;8.80;99.90
61392;DHT22;47261;52.892;5.738;2023-03-12T16:52:42;8.80;99.90
61392;DHT22;47261;52.892;5.738;2023-03-12T16:55:14;8.70;99.90
61392;DHT22;47261;52.892;5.738;2023-03-12T16:57:44;8.70;99.90
61392;DHT22;47261;52.892;5.738;2023-03-12T17:00:14;8.70;99.90
61392;DHT22;47261;52.892;5.738;2023-03-12T17:02:40;8.70;99.90
61392;DHT22;47261;52.892;5.738;2023-03-12T17:05:06;8.70;99.90
61392;DHT22;47261;52.892;5.738;2023-03-12T17:07:32;8.60;99.90
61392;DHT22;47261;52.892;5.738;2023-03-12T17:09:57;8.60;99.90
61392;DHT22;47261;52.892;5.738;2023-03-12T17:12:31;8.60;99.90
61392;DHT22;47261;52.892;5.738;2023-03-12T17:14:59;8.60;99.90
61392;DHT22;47261;52.892;5.738;2023-03-12T17:17:25;8.50;99.90
61392;DHT22;47261;52.892;5.738;2023-03-12T17:19:51;8.50;99.90
61392;DHT22;47261;52.892;5.738;2023-03-12T17:22:18;8.50;99.90
61392;DHT22;47261;52.892;5.738;2023-03-12T17:24:44;8.50;99.90
61392;DHT22;47261;52.892;5.738;2023-03-12T17:27:12;8.50;99.90
61392;DHT22;47261;52.892;5.738;2023-03-12T17:29:38;8.50;99.90
61392;DHT22;47261;52.892;5.738;2023-03-12T17:32:03;8.50;99.90
61392;DHT22;47261;52.892;5.738;2023-03-12T17:34:29;8.50;99.90
61392;DHT22;47261;52.892;5.738;2023-03-12T17:36:54;8.50;99.90
61392;DHT22;47261;52.892;5.738;2023-03-12T17:39:20;8.50;99.90
61392;DHT22;47261;52.892;5.738;2023-03-12T17:41:46;8.60;99.90
61392;DHT22;47261;52.892;5.738;2023-03-12T17:44:12;8.60;99.90
61392;DHT22;47261;52.892;5.738;2023-03-12T17:46:39;8.60;99.90